ADVERTISEMENT

iOS app on App Store Android app on Google Play

2016 \ Run to Remember - January 24, 2016

Notes Pages Download Filter By
  1 2 3 4 5 6 7 8 9 [10] 11 12 13 14 15 16 17 18 19 20 21 22 23




Keyword Exact  
Division

Bib Division Last Name First Name Age Sex Division Place Total Time Overall Sex Place City State
7613 30-39 Male Genato Mark 34 M 156 01:06:31 901 492 Rialto CA
7509 40-49 Female Espino Maria 44 F 106 01:06:32 902 410 Reseda CA
8835 19-29 Female Gonzalez Marilyn 28 F 98 01:06:33 903 411 Los Angeles CA
8461 50-54 Male Sundstrom Erik 50 M 40 01:06:36 904 493 Pomona CA
7850 30-39 Female Lee Jennifer 33 F 148 01:06:37 905 412 Simi Valley CA
7486 50-54 Female Earl Valerie 53 F 25 01:06:38 906 413 Inglewood CA
8678 16-18 Male Segura Daniel 18 M 24 01:06:43 907 494 La CA
8834 30-39 Male Gonzalez Francisco 30 M 157 01:06:43 908 495 Los Angeles CA
234 30-39 Female Carrillo Anna 38 F 149 01:06:44 909 414 Arcadia CA
8123 30-39 Female Ortega Christina 32 F 150 01:06:44 910 415 Long Beach CA
7545 40-49 Male Flynn Michael 47 M 127 01:06:47 911 496 Hermosa Beach CA
8644 30-39 Male Orozco Alex 37 M 158 01:06:47 912 497 N. CA
7079 40-49 Female Temperly Monica 46 F 107 01:06:48 913 416 Los Angeles CA
7916 50-54 Male Lozano Javier 50 M 41 01:06:48 914 498 Anaheim CA
7992 30-39 Female Mejiazea Norelly 32 F 151 01:06:48 915 417 San Clemente CA
8492 40-49 Female Tindugan Jean 48 F 108 01:06:48 916 418 Mission Viejo CA
8619 30-39 Male Yang Young Geun 37 M 159 01:06:49 917 499 Los Angeles CA
7100 30-39 Female Ahn Soyoung 37 F 152 01:06:50 918 419 Los Angeles CA
7606 19-29 Female Gastil Amy 27 F 99 01:06:50 919 420 Santa Clarita CA
7536 30-39 Female Finstad Priscilla 37 F 153 01:06:50 920 421 Los Angeles CA
7530 30-39 Male Feger Jeff 35 M 160 01:06:51 921 500 Alhambra CA
9257 30-39 Female Miyasaka Yuko 37 F 154 01:06:51 922 422 Glendale CA
7668 30-39 Female Guzman Penny 38 F 155 01:06:52 923 423 Azusa CA
8516 30-39 Female Tsuang Lizanea 38 F 156 01:06:54 924 424 Sylmar CA
7749 1-15 Female Jauregui Haley 13 F 10 01:06:56 925 425 Bakersfield CA
7645 30-39 Male Grandes Angel 31 M 161 01:06:57 926 501 Covina CA
8150 30-39 Female Parra Edelmira 34 F 157 01:06:57 927 426 Covina CA
8304 40-49 Female Romero Carmen 41 F 109 01:06:57 928 427 Compton CA
9082 16-18 Female Alarcon Samantha 17 F 10 01:06:57 929 428 Van Nuys
7283 40-49 Male Calderon Ronald 40 M 128 01:06:58 930 502 Long Beach CA
8178 40-49 Female Pershing Danielle 41 F 110 01:07:00 931 429 Van Nuys CA
7215 40-49 Female Benavides Cathy 44 F 111 01:07:01 932 430 Los Angeles CA
8889 16-18 Female Madrid Leslie 17 F 11 01:07:02 933 431 Los Angeles CA
7950 40-49 Female Martinez Lorraine 40 F 112 01:07:04 934 432 Whittier CA
8573 40-49 Male Vrooman Dennis 48 M 129 01:07:08 935 503 Murrieta CA
9091 16-18 Male Ortiz Eric 16 M 25 01:07:09 936 504 Van Nuys
9450 1-15 Female Tsuang Shiloh 12 F 11 01:07:11 937 433 Sylmar CA
8452 30-39 Female Strollo Jennifer 36 F 158 01:07:16 938 434 Diamond Bar CA
7453 60-64 Female Donaldson Nikki 64 F 6 01:07:18 939 435 Fresno CA
7907 30-39 Female Lopez Diana 37 F 159 01:07:18 940 436 Los Angeles CA
7849 30-39 Male Lee Jack 35 M 162 01:07:19 941 505 Yorba Linda CA
7490 30-39 Male Efflandt Kyle 30 M 163 01:07:21 942 506 Saugus CA
9305 50-54 Male Santos Al 52 M 42 01:07:22 943 507 Valencia CA
9329 30-39 Female Warren Clarissa 32 F 160 01:07:25 944 437 Los Angeles CA
9177 19-29 Female Dromgold-sermen Michelle 28 F 100 01:07:26 945 438 Los Angeles CA
8056 30-39 Female Mullen Laura 38 F 161 01:07:27 946 439 Oxnard CA
8596 55-59 Female Wickser Julie 59 F 13 01:07:34 947 440 Los Alamitos CA
7919 40-49 Female Luna Carmen 48 F 113 01:07:34 948 441 Lancaster CA
7553 40-49 Female Flores Francisca 41 F 114 01:07:38 949 442 Whittier CA
7226 40-49 Female Bertonneau Michelle 48 F 115 01:07:40 950 443 Altadena CA
8265 19-29 Female Richards Theresa 26 F 101 01:07:41 951 444 Lakewood CA
7428 30-39 Male Demirjian Mark 39 M 164 01:07:42 952 508 Glendale CA
7265 40-49 Female Bui Angelica 45 F 116 01:07:42 953 445 San Clemente CA
7609 50-54 Male Gee Erwin 53 M 43 01:07:46 954 509 Diamond Bar CA
7081 30-39 Female Abbott Danielle 31 F 162 01:07:48 955 446 Toluca Lake CA
7461 30-39 Female Dormitorio Sharon 37 F 163 01:07:48 956 447 Gardena CA
7358 40-49 Female Collinske Dawn 48 F 117 01:07:53 957 448 Rancho Santa Margari CA
7671 30-39 Female Hall Stephanie 37 F 164 01:07:53 958 449 Long Beach CA
7526 50-54 Female Farinella Laura 51 F 26 01:07:54 959 450 Rancho Santa Margari CA
8042 40-49 Female Mora Nancy 46 F 118 01:07:54 960 451 Los Alamitos CA
8846 30-39 Female Hammer Carolyn 34 F 165 01:07:55 961 452 Los Angeles CA
8060 30-39 Female Munoz Blanca 38 F 166 01:07:59 962 453 Bellflower CA
7812 30-39 Male Kovacs Lea 33 M 165 01:08:00 963 510 North Tustin CA
7256 19-29 Female Brodeur Vanessa 25 F 102 01:08:01 964 454 Garden Grove CA
7471 30-39 Female Doyle Amanda 30 F 167 01:08:01 965 455 Long Beach CA
8350 50-54 Female San Juan Doris 52 F 27 01:08:05 966 456 La Puente CA
9246 30-39 Male Madjd Arash 32 M 166 01:08:06 967 511 Orange CA
9247 19-29 Female Madjd Natasha 28 F 103 01:08:06 968 457 Orange CA
8113 19-29 Female Olvera Yesenia 28 F 104 01:08:06 969 458 Fontana CA
7747 1-15 Male Jaramillo Luke 15 M 37 01:08:07 970 512 Fontana CA
8345 19-29 Female Salcedo Roxana 28 F 105 01:08:08 971 459 Montebello CA
7289 19-29 Female Canote Rebecca 25 F 106 01:08:11 972 460 Los Angeles CA
8662 19-29 Female Hodgden Stephanie 29 F 107 01:08:13 973 461 La CA
8114 55-59 Female Oneal Beverly 58 F 14 01:08:13 974 462 Palmdale CA
9607 50-54 Male Rivas Rudy 51 M 44 01:08:18 975 513 Los Angeles CA
7661 40-49 Female Gutierrez Belinda 44 F 119 01:08:19 976 463 Los Angeles CA
7111 30-39 Male Alfaro Angel 33 M 167 01:08:21 977 514 Los Angeles CA
7339 19-29 Female Choi Cindy 23 F 108 01:08:21 978 464 Los Angeles CA
8681 19-29 Male Tapia Raul 20 M 69 01:08:22 979 515 La CA
3787 40-49 Male Biazevich Jim 47 M 130 01:08:23 980 516 San Pedro
9140 40-49 Female Bringas Fraulein 44 F 120 01:08:23 981 465 Glendale CA
8655 16-18 Female Fanny Segura 16 F 12 01:08:25 982 466 La CA
9380 30-39 Male Aguayo Dwight 33 M 168 01:08:25 983 517 Los Angeles CA
8090 19-29 Female Nimmer Casey 25 F 109 01:08:26 984 467 Burbank CA
7492 16-18 Male Elizondo Benjamin 16 M 26 01:08:26 985 518 Glendora CA
8665 1-15 Male Lara Kevin 15 M 38 01:08:26 986 519 La CA
9604 16-18 Female Granados Maria 18 F 13 01:08:26 987 468 Los Angeles CA
8680 80-99 Female Soto Rachel 81 F 1 01:08:26 988 469 North Hollywood CA
9446 16-18 Female Vega Jenny 16 F 14 01:08:27 989 470 Los Angeles CA
7375 55-59 Female Couture Aileen 55 F 15 01:08:27 990 471 Riverside CA
8663 1-15 Male Honorato Hesli 13 M 39 01:08:28 991 520 La CA
8666 16-18 Male Lopez Anthony 18 M 27 01:08:28 992 521 La CA
9222 40-49 Female Jacobsen Kirsten 46 F 121 01:08:29 993 472 Burbank CA
8677 16-18 Female Sanchez Paola 18 F 15 01:08:29 994 473 La CA
9382 16-18 Male Mora Duran Andrew 16 M 28 01:08:30 995 522 South Gate CA
8679 16-18 Male Silva Raul 16 M 29 01:08:30 996 523 La CA
9603 16-18 Male Salinas Alejandro 18 M 30 01:08:31 997 524 Los Angeles CA
9601 16-18 Female Martinez Danielle 16 F 16 01:08:32 998 474 Los Angeles CA
7746 40-49 Female Jaramillo Emily 40 F 122 01:08:32 999 475 Fontana CA
9507 30-39 Female Costanzo Barbara 39 F 168 01:08:32 1000 476 Glendale CA
Notes Pages Download Filter By
  1 2 3 4 5 6 7 8 9 [10] 11 12 13 14 15 16 17 18 19 20 21 22 23




Keyword Exact  
Division

Bib Division Last Name First Name Age Sex Division Place Total Time Overall Sex Place City State
961 19-29 Female Mosqueda Stephanie 23 F 59 02:07:13 901 277 Hawthorne CA
3666 19-29 Male Martinez Carlos 19 M 72 02:07:16 902 625 Srla70
2580 30-39 Female Hong Xi 38 F 92 02:07:17 903 278 Oak Park CA
172 50-54 Female Palmer Maria 54 F 24 02:07:17 904 279 Gardena CA
3841 1-18 Female Hernandez Alondra 18 F 25 02:07:18 905 280 Los Angeles
193 40-49 Male Yamada James 49 M 194 02:07:20 906 626 San Dimas CA
2810 19-29 Female Mesman Keirstyn 23 F 60 02:07:22 907 281 Ontario CA
3826 30-39 Female Huerta Jeanette 31 F 93 02:07:22 908 282 Mission Hills
3685 30-39 Male Contreras Federico 30 M 173 02:07:26 909 627 Fontana CA
2811 40-49 Female Mesman Kimberly 48 F 73 02:07:31 910 283 Ontario CA
3084 55-59 Female Ross Rachel 57 F 6 02:07:33 911 284 Coalinga CA
2946 30-39 Female Peery Bonnie 32 F 94 02:07:34 912 285 Tujunga CA
3382 1-18 Female Bonilla Karina 16 F 26 02:07:38 913 286 Srla11
3869 40-49 Female Maplia Irene 41 F 74 02:07:38 914 287 Manhattan Beach CA
2305 19-29 Female Davino Rylee 19 F 61 02:07:42 915 288 Fresno CA
2828 40-49 Female Mitra Romyleen 45 F 75 02:07:43 916 289 Los Angeles CA
2918 40-49 Male Orellana Oscar 43 M 195 02:07:44 917 628 Los Angeles CA
2577 55-59 Female Holt Linda 55 F 7 02:07:47 918 290 Torrance CA
722 30-39 Male Rosales Gabriel 34 M 174 02:07:47 919 629 Chino CA
2436 30-39 Female Galassi Melissa 36 F 95 02:07:48 920 291 Yoruba Linda CA
963 40-49 Male Naikawadi Sanjeev 49 M 196 02:07:48 921 630 Monrovia CA
2491 19-29 Male Gonzalez Ernie 25 M 73 02:07:49 922 631 Brea CA
640 50-54 Female Cardenas Sonia 50 F 25 02:07:49 923 292 Downey CA
2134 30-39 Male Bernal Mathew 34 M 175 02:07:54 924 632 Alhambra CA
2998 30-39 Female Pruitt Cherrena 39 F 96 02:07:55 925 293 Bell Gardens CA
2819 30-39 Female Miller Jenalyn 34 F 97 02:07:56 926 294 Long Beach CA
921 40-49 Male Bugarin David 47 M 197 02:08:02 927 633 San Pedro CA
2994 55-59 Male Preciado Benny 55 M 24 02:08:04 928 634 Los Angeles CA
7948 50-54 Male Martinez Jose 50 M 56 02:08:05 929 635 Carson CA
9022 1-18 Male Salinas Erick 16 M 93 02:08:06 930 636 Panorama City
375 19-29 Male Rojas Jonathan 25 M 74 02:08:06 931 637 Pomona CA
2333 19-29 Male Diaz John 25 M 75 02:08:09 932 638 Tarzana CA
419 40-49 Male Vo Ngan 41 M 198 02:08:09 933 639 Anaheim CA
2388 50-54 Female Felber Stephanie 51 F 26 02:08:10 934 295 Elgin IL
2835 30-39 Male Monson Jerald 34 M 176 02:08:11 935 640 Pasadena CA
285 19-29 Female Hatami Roxanne 29 F 62 02:08:11 936 296 Valencia CA
186 40-49 Female Smith Amira 43 F 76 02:08:12 937 297 La Crescenta CA
2822 19-29 Female Miranda Jeannette 26 F 63 02:08:13 938 298 Dominguez Hilla CA
73 30-39 Male Clark Dennis 34 M 177 02:08:14 939 641 Whittier CA
216 40-49 Male Anderson Gregory 44 M 199 02:08:14 940 642 Lakewood CA
164 50-54 Male Mireles Jose 53 M 57 02:08:17 941 643 Cudahy CA
3663 1-18 Male Hidalgo Mario 17 M 94 02:08:17 942 644 Srla70
3319 40-49 Female Vogel Laura 47 F 77 02:08:19 943 299 Whittier CA
2768 30-39 Female Martinez Katya 35 F 98 02:08:21 944 300 Santa Ana CA
7945 1-18 Male Martinez Esteban 10 M 95 02:08:25 945 645 Carson CA
3046 55-59 Female Richardson Egzine 58 F 8 02:08:27 946 301 Los Angeles CA
2831 40-49 Male Mojarro Hernan 41 M 200 02:08:27 947 646 South Gate CA
3690 19-29 Male Eggleston Cameron 26 M 76 02:08:29 948 647 Santa Clarita CA
3576 1-18 Male Mejia-reyes Jimmy 15 M 96 02:08:32 949 648 Srla370
2076 40-49 Male Arroyo Enrique 43 M 201 02:08:37 950 649 Pasadena CA
3559 1-18 Female Del Rayo-nava Lucero 17 F 27 02:08:40 951 302 Srla370
665 40-49 Female Franklin Nancy 45 F 78 02:08:41 952 303 Chino Hills CA
2235 50-54 Male Chavez Danny 53 M 58 02:08:42 953 650 Long Beach CA
516 40-49 Male Rodriguez Miguel 45 M 202 02:08:43 954 651 Eastvale CA
2142 30-39 Female Biello Katie 35 F 99 02:08:58 955 304 Auburndale MA
146 30-39 Female Herrera Heather 30 F 100 02:08:58 956 305 Northridge CA
3213 30-39 Female Suarez Marisabel 30 F 101 02:08:58 957 306 Rosemead CA
3219 50-54 Female Swanson Kirsten 50 F 27 02:09:03 958 307 Cupertino CA
2401 19-29 Female Flanery Andrea 29 F 64 02:09:03 959 308 Colton CA
3066 40-49 Female Robles Regina 44 F 79 02:09:04 960 309 La Puente CA
3250 40-49 Female Tirona Hazel 41 F 80 02:09:04 961 310 Pasadena CA
957 30-39 Male Mac Rajan 39 M 178 02:09:04 962 652 West Hills CA
610 40-49 Male Phillips Terry 47 M 203 02:09:05 963 653 Oceanside CA
255 19-29 Female Duarte Mayra 29 F 65 02:09:06 964 311 La Habra CA
3542 1-18 Male Ortiz Eben 18 M 97 02:09:08 965 654 Srla369
2438 30-39 Female Galindo Ada 37 F 102 02:09:11 966 312 Los Angeles CA
252 40-49 Male Dohrmann Jason 40 M 204 02:09:11 967 655 Westchester CA
2590 30-39 Male Huang Alexander 33 M 179 02:09:12 968 656 Los Angeles CA
3632 1-18 Male Diaz Daniel 14 M 98 02:09:22 969 657 Srla421
2704 40-49 Female Levant Esmeralda 45 F 81 02:09:24 970 313 Whittier CA
3079 40-49 Male Rosas Adrian 47 M 205 02:09:27 971 658 North Hills CA
3754 40-49 Male Torres Jose 41 M 206 02:09:29 972 659 Downey CA
2813 40-49 Male Michael Craig 45 M 207 02:09:29 973 660 Covina CA
3123 19-29 Female Sanchez Martha 24 F 66 02:09:29 974 314 Canoga Park CA
2467 30-39 Female Gaxiola Wendy 36 F 103 02:09:30 975 315 Newhall CA
2860 40-49 Female Mumbrue Lainie 46 F 82 02:09:30 976 316 Los Angeles CA
2127 19-29 Female Benavente Cristina 23 F 67 02:09:35 977 317 Aurora CO
2359 55-59 Female Dutil Maria Elena 55 F 9 02:09:36 978 318 Culver City CA
937 40-49 Female Corbin Carol 47 F 83 02:09:36 979 319 Bakersfield CA
2271 30-39 Female Cortes Jessica 33 F 104 02:09:42 980 320 Dominguez Hills CA
3711 40-49 Male Harris Larry 44 M 208 02:09:45 981 661 Chatsworth CA
945 40-49 Female Freeman Robin 42 F 84 02:09:46 982 321 Brea CA
2252 30-39 Female Christensen-pacheco Amy 32 F 105 02:09:47 983 322 Monterey Park CA
3715 40-49 Female Lamendola Linda 41 F 85 02:09:48 984 323 Santa Monica CA
185 30-39 Male Silva Andre 30 M 180 02:09:48 985 662 Valencia CA
3833 1-18 Male Velasquez Jorgie 17 M 99 02:09:48 986 663 Mission Hills
332 50-54 Male Mckee Kevin 53 M 59 02:09:49 987 664 Lakewood CA
2351 40-49 Female Dube Ice 43 F 86 02:09:50 988 324 Chatsworth CA
3561 40-49 Female Edmond Licetz 48 F 87 02:09:51 989 325 Srla370
3567 1-18 Male Gonzalez Eladio 17 M 100 02:09:52 990 665 Srla370
2061 19-29 Male Angulo Augusto 23 M 77 02:09:55 991 666 Van Nuys CA
3638 1-18 Male Hernandez Juan 17 M 101 02:10:00 992 667 Srla421
296 40-49 Male Intertas Jet 41 M 209 02:10:05 993 668 Long Beach CA
3853 19-29 Female Nieto-torres Erika 22 F 68 02:10:05 994 326 San Jose CA
2662 40-49 Female Kirstenpfad Kristin 44 F 88 02:10:06 995 327 Chino Hills CA
3832 1-18 Male Tajonar Saul 17 M 102 02:10:06 996 669 Mission Hills
3233 30-39 Female Tang Angie 38 F 106 02:10:07 997 328 Monrovia CA
3823 1-18 Male Garcia Ery 17 M 103 02:10:11 998 670 Mission Hills
2940 30-39 Female Parra Kirsty 38 F 107 02:10:12 999 329 Yucaipa CA
3376 30-39 Male Zuo Haojiang 32 M 181 02:10:12 1000 671 Los Angeles CA